sensor_id;sensor_type;location;lat;lon;timestamp;pressure;altitude;pressure_sealevel;temperature;humidity
64053;BME280;50299;49.524;8.536;2023-08-20T00:01:21;100819.22;;;20.88;61.40
64053;BME280;50299;49.524;8.536;2023-08-20T00:03:50;100808.41;;;20.90;61.18
64053;BME280;50299;49.524;8.536;2023-08-20T00:06:17;100808.00;;;20.88;61.74
64053;BME280;50299;49.524;8.536;2023-08-20T00:08:43;100807.91;;;20.74;61.11
64053;BME280;50299;49.524;8.536;2023-08-20T00:11:11;100808.38;;;20.86;60.37
64053;BME280;50299;49.524;8.536;2023-08-20T00:13:39;100808.81;;;20.92;60.70
64053;BME280;50299;49.524;8.536;2023-08-20T00:16:06;100811.19;;;20.86;59.52
64053;BME280;50299;49.524;8.536;2023-08-20T00:18:33;100811.22;;;20.93;60.88
64053;BME280;50299;49.524;8.536;2023-08-20T00:21:04;100807.22;;;20.91;61.29
64053;BME280;50299;49.524;8.536;2023-08-20T00:23:31;100806.34;;;20.80;59.99
64053;BME280;50299;49.524;8.536;2023-08-20T00:25:58;100811.00;;;20.65;62.02
64053;BME280;50299;49.524;8.536;2023-08-20T00:28:25;100810.16;;;20.61;61.68
64053;BME280;50299;49.524;8.536;2023-08-20T00:30:51;100813.38;;;20.59;62.28
64053;BME280;50299;49.524;8.536;2023-08-20T00:33:18;100820.56;;;20.57;60.87
64053;BME280;50299;49.524;8.536;2023-08-20T00:35:44;100815.03;;;20.67;61.47
64053;BME280;50299;49.524;8.536;2023-08-20T00:38:11;100823.84;;;20.62;60.70
64053;BME280;50299;49.524;8.536;2023-08-20T00:40:37;100825.34;;;20.53;61.69
64053;BME280;50299;49.524;8.536;2023-08-20T00:43:03;100827.09;;;20.20;62.19
64053;BME280;50299;49.524;8.536;2023-08-20T00:45:30;100823.78;;;20.11;62.38
64053;BME280;50299;49.524;8.536;2023-08-20T00:47:56;100826.47;;;20.00;61.85
64053;BME280;50299;49.524;8.536;2023-08-20T00:50:23;100819.19;;;19.95;61.80
64053;BME280;50299;49.524;8.536;2023-08-20T00:52:50;100818.00;;;19.96;61.53
64053;BME280;50299;49.524;8.536;2023-08-20T00:55:17;100816.41;;;19.99;62.25
64053;BME280;50299;49.524;8.536;2023-08-20T00:57:43;100825.41;;;20.15;62.03
64053;BME280;50299;49.524;8.536;2023-08-20T01:00:11;100829.50;;;20.21;60.45
64053;BME280;50299;49.524;8.536;2023-08-20T01:02:38;100831.50;;;20.21;61.67
64053;BME280;50299;49.524;8.536;2023-08-20T01:05:07;100831.97;;;20.30;61.03
64053;BME280;50299;49.524;8.536;2023-08-20T01:07:58;100834.00;;;20.30;60.40
64053;BME280;50299;49.524;8.536;2023-08-20T01:12:57;100832.44;;;19.98;62.21
64053;BME280;50299;49.524;8.536;2023-08-20T01:15:24;100829.31;;;20.04;62.17
64053;BME280;50299;49.524;8.536;2023-08-20T01:17:51;100830.19;;;20.11;62.29
64053;BME280;50299;49.524;8.536;2023-08-20T01:20:18;100825.81;;;20.14;61.78
64053;BME280;50299;49.524;8.536;2023-08-20T01:23:19;100822.22;;;20.13;62.67
64053;BME280;50299;49.524;8.536;2023-08-20T01:26:16;100824.97;;;20.10;62.48
64053;BME280;50299;49.524;8.536;2023-08-20T01:28:47;100815.34;;;20.11;62.20
64053;BME280;50299;49.524;8.536;2023-08-20T01:31:14;100818.94;;;20.08;62.03
64053;BME280;50299;49.524;8.536;2023-08-20T01:33:41;100819.72;;;20.08;62.53
64053;BME280;50299;49.524;8.536;2023-08-20T01:36:08;100820.91;;;20.07;62.53
64053;BME280;50299;49.524;8.536;2023-08-20T01:38:37;100810.47;;;20.04;61.62
64053;BME280;50299;49.524;8.536;2023-08-20T01:41:04;100802.00;;;20.01;63.28
64053;BME280;50299;49.524;8.536;2023-08-20T01:43:31;100800.72;;;19.94;61.87
64053;BME280;50299;49.524;8.536;2023-08-20T01:45:57;100798.31;;;19.93;62.96
64053;BME280;50299;49.524;8.536;2023-08-20T01:48:24;100798.72;;;19.91;62.37
64053;BME280;50299;49.524;8.536;2023-08-20T01:50:50;100794.25;;;19.87;63.46
64053;BME280;50299;49.524;8.536;2023-08-20T01:53:17;100801.44;;;19.84;64.03
64053;BME280;50299;49.524;8.536;2023-08-20T01:55:43;100788.94;;;19.75;63.99
64053;BME280;50299;49.524;8.536;2023-08-20T01:58:09;100793.97;;;19.62;64.08
64053;BME280;50299;49.524;8.536;2023-08-20T02:00:36;100795.59;;;19.63;64.05
64053;BME280;50299;49.524;8.536;2023-08-20T02:03:03;100801.16;;;19.59;63.52
64053;BME280;50299;49.524;8.536;2023-08-20T02:05:30;100805.13;;;19.55;62.93
64053;BME280;50299;49.524;8.536;2023-08-20T02:07:56;100796.72;;;19.55;63.34
64053;BME280;50299;49.524;8.536;2023-08-20T02:10:23;100807.94;;;19.55;64.21
64053;BME280;50299;49.524;8.536;2023-08-20T02:12:49;100799.75;;;19.42;63.87
64053;BME280;50299;49.524;8.536;2023-08-20T02:15:16;100806.72;;;19.26;64.45
64053;BME280;50299;49.524;8.536;2023-08-20T02:17:42;100802.50;;;19.09;65.51
64053;BME280;50299;49.524;8.536;2023-08-20T02:20:09;100807.19;;;19.01;64.95
64053;BME280;50299;49.524;8.536;2023-08-20T02:22:38;100809.44;;;18.92;65.48
64053;BME280;50299;49.524;8.536;2023-08-20T02:25:05;100811.38;;;18.84;65.74
64053;BME280;50299;49.524;8.536;2023-08-20T02:27:31;100810.06;;;18.78;66.55
64053;BME280;50299;49.524;8.536;2023-08-20T02:29:59;100815.16;;;18.72;66.80
64053;BME280;50299;49.524;8.536;2023-08-20T02:32:25;100809.97;;;18.74;66.72
64053;BME280;50299;49.524;8.536;2023-08-20T02:34:52;100803.16;;;18.72;67.05
64053;BME280;50299;49.524;8.536;2023-08-20T02:37:19;100821.97;;;18.75;66.91
64053;BME280;50299;49.524;8.536;2023-08-20T02:39:46;100824.72;;;18.71;67.04
64053;BME280;50299;49.524;8.536;2023-08-20T02:42:12;100821.03;;;18.64;67.31
64053;BME280;50299;49.524;8.536;2023-08-20T02:44:38;100825.97;;;18.51;67.72
64053;BME280;50299;49.524;8.536;2023-08-20T02:47:05;100825.81;;;18.40;67.99
64053;BME280;50299;49.524;8.536;2023-08-20T02:49:32;100827.31;;;18.34;68.57
64053;BME280;50299;49.524;8.536;2023-08-20T02:51:58;100827.13;;;18.23;68.74
64053;BME280;50299;49.524;8.536;2023-08-20T02:54:24;100838.69;;;18.22;68.35
64053;BME280;50299;49.524;8.536;2023-08-20T02:56:52;100831.16;;;18.26;68.56
64053;BME280;50299;49.524;8.536;2023-08-20T02:59:18;100837.69;;;18.34;69.65
64053;BME280;50299;49.524;8.536;2023-08-20T03:01:45;100829.88;;;18.43;68.88
64053;BME280;50299;49.524;8.536;2023-08-20T03:04:11;100825.94;;;18.47;68.06
64053;BME280;50299;49.524;8.536;2023-08-20T03:06:38;100823.56;;;18.49;68.01
64053;BME280;50299;49.524;8.536;2023-08-20T03:09:04;100824.81;;;18.52;67.77
64053;BME280;50299;49.524;8.536;2023-08-20T03:11:31;100816.78;;;18.50;67.70
64053;BME280;50299;49.524;8.536;2023-08-20T03:13:57;100817.16;;;18.49;67.88
64053;BME280;50299;49.524;8.536;2023-08-20T03:16:23;100823.09;;;18.44;67.60
64053;BME280;50299;49.524;8.536;2023-08-20T03:18:50;100820.66;;;18.42;67.98
64053;BME280;50299;49.524;8.536;2023-08-20T03:21:16;100816.63;;;18.40;68.37
64053;BME280;50299;49.524;8.536;2023-08-20T03:23:43;100819.78;;;18.38;68.43
64053;BME280;50299;49.524;8.536;2023-08-20T03:26:09;100826.94;;;18.36;67.10
64053;BME280;50299;49.524;8.536;2023-08-20T03:28:35;100825.47;;;18.19;67.82
64053;BME280;50299;49.524;8.536;2023-08-20T03:31:02;100831.13;;;18.22;68.88
64053;BME280;50299;49.524;8.536;2023-08-20T03:33:28;100827.38;;;18.15;68.38
64053;BME280;50299;49.524;8.536;2023-08-20T03:35:54;100831.06;;;18.19;68.46
64053;BME280;50299;49.524;8.536;2023-08-20T03:38:25;100824.59;;;18.15;67.70
64053;BME280;50299;49.524;8.536;2023-08-20T03:40:52;100831.47;;;18.21;69.09
64053;BME280;50299;49.524;8.536;2023-08-20T03:43:18;100828.44;;;18.30;68.57
64053;BME280;50299;49.524;8.536;2023-08-20T03:45:49;100815.69;;;18.32;68.50
64053;BME280;50299;49.524;8.536;2023-08-20T03:48:16;100817.28;;;18.33;69.02
64053;BME280;50299;49.524;8.536;2023-08-20T03:50:42;100813.69;;;18.33;68.61
64053;BME280;50299;49.524;8.536;2023-08-20T03:53:09;100818.34;;;18.25;68.73
64053;BME280;50299;49.524;8.536;2023-08-20T03:55:35;100822.59;;;18.15;68.41
64053;BME280;50299;49.524;8.536;2023-08-20T03:58:02;100830.53;;;18.13;68.95
64053;BME280;50299;49.524;8.536;2023-08-20T04:00:29;100824.06;;;18.09;69.23
64053;BME280;50299;49.524;8.536;2023-08-20T04:02:55;100824.13;;;18.13;69.34
64053;BME280;50299;49.524;8.536;2023-08-20T04:05:21;100824.06;;;18.09;68.17
64053;BME280;50299;49.524;8.536;2023-08-20T04:07:48;100831.13;;;18.03;68.33
64053;BME280;50299;49.524;8.536;2023-08-20T04:10:14;100834.97;;;17.95;69.70
64053;BME280;50299;49.524;8.536;2023-08-20T04:12:40;100832.16;;;17.95;70.68
64053;BME280;50299;49.524;8.536;2023-08-20T04:15:07;100835.41;;;17.97;69.27
64053;BME280;50299;49.524;8.536;2023-08-20T04:17:33;100830.09;;;17.92;68.75
64053;BME280;50299;49.524;8.536;2023-08-20T04:20:00;100832.75;;;17.85;69.93
64053;BME280;50299;49.524;8.536;2023-08-20T04:22:27;100826.75;;;17.83;69.55
64053;BME280;50299;49.524;8.536;2023-08-20T04:24:56;100831.97;;;17.84;70.30
64053;BME280;50299;49.524;8.536;2023-08-20T04:27:23;100835.78;;;17.95;70.48
64053;BME280;50299;49.524;8.536;2023-08-20T04:29:49;100835.13;;;18.02;69.19
64053;BME280;50299;49.524;8.536;2023-08-20T04:32:15;100828.13;;;17.92;68.14
64053;BME280;50299;49.524;8.536;2023-08-20T04:34:44;100836.66;;;17.80;69.20
64053;BME280;50299;49.524;8.536;2023-08-20T04:37:12;100826.91;;;17.70;69.33
64053;BME280;50299;49.524;8.536;2023-08-20T04:39:39;100829.69;;;17.70;70.64
64053;BME280;50299;49.524;8.536;2023-08-20T04:42:05;100831.47;;;17.79;70.29
64053;BME280;50299;49.524;8.536;2023-08-20T04:44:32;100839.16;;;17.85;69.76
64053;BME280;50299;49.524;8.536;2023-08-20T04:47:00;100839.31;;;17.92;70.02
64053;BME280;50299;49.524;8.536;2023-08-20T04:49:26;100846.31;;;17.83;70.77
64053;BME280;50299;49.524;8.536;2023-08-20T04:51:54;100848.81;;;17.88;71.24
64053;BME280;50299;49.524;8.536;2023-08-20T04:54:21;100845.41;;;18.17;71.17
64053;BME280;50299;49.524;8.536;2023-08-20T04:56:47;100857.66;;;18.32;70.85
64053;BME280;50299;49.524;8.536;2023-08-20T04:59:14;100862.47;;;18.32;71.10
64053;BME280;50299;49.524;8.536;2023-08-20T05:01:40;100868.94;;;18.36;70.44
64053;BME280;50299;49.524;8.536;2023-08-20T05:04:07;100865.84;;;18.21;71.28
64053;BME280;50299;49.524;8.536;2023-08-20T05:06:33;100867.97;;;18.28;70.81
64053;BME280;50299;49.524;8.536;2023-08-20T05:09:00;100870.16;;;18.15;72.12
64053;BME280;50299;49.524;8.536;2023-08-20T05:11:26;100867.25;;;18.31;71.76
64053;BME280;50299;49.524;8.536;2023-08-20T05:13:55;100869.03;;;18.66;70.72
64053;BME280;50299;49.524;8.536;2023-08-20T05:16:21;100871.97;;;18.73;70.24
64053;BME280;50299;49.524;8.536;2023-08-20T05:18:47;100883.84;;;18.89;69.08
64053;BME280;50299;49.524;8.536;2023-08-20T05:21:14;100891.94;;;18.94;69.39
64053;BME280;50299;49.524;8.536;2023-08-20T05:23:40;100891.44;;;18.66;71.21
64053;BME280;50299;49.524;8.536;2023-08-20T05:26:07;100886.44;;;19.02;69.70
64053;BME280;50299;49.524;8.536;2023-08-20T05:28:34;100895.09;;;19.19;68.14
64053;BME280;50299;49.524;8.536;2023-08-20T05:31:00;100897.50;;;19.17;69.17
64053;BME280;50299;49.524;8.536;2023-08-20T05:33:27;100904.63;;;19.41;68.29
64053;BME280;50299;49.524;8.536;2023-08-20T05:35:55;100895.09;;;19.19;67.41
64053;BME280;50299;49.524;8.536;2023-08-20T05:38:21;100900.00;;;18.99;68.23
64053;BME280;50299;49.524;8.536;2023-08-20T05:40:48;100896.41;;;18.76;70.08
64053;BME280;50299;49.524;8.536;2023-08-20T05:43:14;100895.84;;;18.67;68.88
64053;BME280;50299;49.524;8.536;2023-08-20T05:45:41;100900.13;;;18.80;69.19
64053;BME280;50299;49.524;8.536;2023-08-20T05:48:07;100894.09;;;18.59;70.10
64053;BME280;50299;49.524;8.536;2023-08-20T05:50:34;100895.38;;;19.11;69.90
64053;BME280;50299;49.524;8.536;2023-08-20T05:53:00;100896.00;;;19.50;66.97
64053;BME280;50299;49.524;8.536;2023-08-20T05:55:27;100900.06;;;19.56;66.75
64053;BME280;50299;49.524;8.536;2023-08-20T05:57:54;100903.19;;;19.81;66.56
64053;BME280;50299;49.524;8.536;2023-08-20T06:00:20;100903.78;;;19.97;64.77
64053;BME280;50299;49.524;8.536;2023-08-20T06:02:46;100910.84;;;20.18;64.47
64053;BME280;50299;49.524;8.536;2023-08-20T06:05:13;100913.88;;;20.39;65.11
64053;BME280;50299;49.524;8.536;2023-08-20T06:07:39;100913.13;;;20.83;61.96
64053;BME280;50299;49.524;8.536;2023-08-20T06:10:07;100917.72;;;21.09;61.89
64053;BME280;50299;49.524;8.536;2023-08-20T06:12:34;100908.41;;;20.94;60.83
64053;BME280;50299;49.524;8.536;2023-08-20T06:15:01;100914.28;;;21.34;61.42
64053;BME280;50299;49.524;8.536;2023-08-20T06:17:27;100915.25;;;21.56;59.89
64053;BME280;50299;49.524;8.536;2023-08-20T06:19:53;100914.53;;;21.80;58.61
64053;BME280;50299;49.524;8.536;2023-08-20T06:22:20;100912.59;;;21.22;60.48
64053;BME280;50299;49.524;8.536;2023-08-20T06:24:46;100912.38;;;21.49;59.26
64053;BME280;50299;49.524;8.536;2023-08-20T06:27:12;100920.53;;;21.72;59.24
64053;BME280;50299;49.524;8.536;2023-08-20T06:29:39;100929.72;;;21.58;59.65
64053;BME280;50299;49.524;8.536;2023-08-20T06:32:05;100930.25;;;21.85;59.26
64053;BME280;50299;49.524;8.536;2023-08-20T06:34:34;100937.63;;;22.18;57.53
64053;BME280;50299;49.524;8.536;2023-08-20T06:37:01;100925.53;;;22.07;58.73
64053;BME280;50299;49.524;8.536;2023-08-20T06:39:27;100934.84;;;22.29;58.05
64053;BME280;50299;49.524;8.536;2023-08-20T06:41:53;100933.50;;;21.94;59.32
64053;BME280;50299;49.524;8.536;2023-08-20T06:44:20;100926.81;;;22.31;58.75
64053;BME280;50299;49.524;8.536;2023-08-20T06:46:46;100932.34;;;22.02;58.82
64053;BME280;50299;49.524;8.536;2023-08-20T06:49:13;100929.88;;;21.90;60.00
64053;BME280;50299;49.524;8.536;2023-08-20T06:51:39;100930.94;;;21.67;60.61
64053;BME280;50299;49.524;8.536;2023-08-20T06:54:06;100930.56;;;21.65;61.24
64053;BME280;50299;49.524;8.536;2023-08-20T06:56:32;100925.84;;;21.91;59.60
64053;BME280;50299;49.524;8.536;2023-08-20T06:59:00;100928.88;;;21.50;61.61
64053;BME280;50299;49.524;8.536;2023-08-20T07:01:26;100928.94;;;21.64;61.12
64053;BME280;50299;49.524;8.536;2023-08-20T07:03:52;100919.31;;;21.65;61.34
64053;BME280;50299;49.524;8.536;2023-08-20T07:06:19;100919.50;;;21.32;62.10
64053;BME280;50299;49.524;8.536;2023-08-20T07:08:45;100924.53;;;21.71;62.34
64053;BME280;50299;49.524;8.536;2023-08-20T07:11:12;100925.63;;;21.44;62.76
64053;BME280;50299;49.524;8.536;2023-08-20T07:13:38;100921.13;;;22.09;61.37
64053;BME280;50299;49.524;8.536;2023-08-20T07:16:05;100934.06;;;22.46;59.34
64053;BME280;50299;49.524;8.536;2023-08-20T07:18:31;100935.75;;;22.76;58.31
64053;BME280;50299;49.524;8.536;2023-08-20T07:20:58;100935.22;;;22.20;59.92
64053;BME280;50299;49.524;8.536;2023-08-20T07:23:26;100931.25;;;22.42;58.65
64053;BME280;50299;49.524;8.536;2023-08-20T07:26:04;100936.44;;;22.33;59.94
64053;BME280;50299;49.524;8.536;2023-08-20T07:28:31;100947.84;;;22.80;58.53
64053;BME280;50299;49.524;8.536;2023-08-20T07:31:16;100929.31;;;22.86;57.99
64053;BME280;50299;49.524;8.536;2023-08-20T07:33:46;100942.19;;;23.01;59.72
64053;BME280;50299;49.524;8.536;2023-08-20T07:36:13;100944.63;;;23.21;56.86
64053;BME280;50299;49.524;8.536;2023-08-20T07:38:40;100937.63;;;23.72;55.76
64053;BME280;50299;49.524;8.536;2023-08-20T07:41:11;100949.34;;;23.67;53.91
64053;BME280;50299;49.524;8.536;2023-08-20T07:43:38;100946.47;;;23.95;55.01
64053;BME280;50299;49.524;8.536;2023-08-20T07:46:06;100953.56;;;24.25;54.72
64053;BME280;50299;49.524;8.536;2023-08-20T07:48:34;100945.22;;;24.70;52.85
64053;BME280;50299;49.524;8.536;2023-08-20T07:51:04;100947.09;;;24.94;53.58
64053;BME280;50299;49.524;8.536;2023-08-20T07:53:31;100949.41;;;25.51;52.31
64053;BME280;50299;49.524;8.536;2023-08-20T07:56:01;100944.59;;;25.79;49.08
64053;BME280;50299;49.524;8.536;2023-08-20T07:58:28;100941.94;;;25.27;49.80
64053;BME280;50299;49.524;8.536;2023-08-20T08:00:56;100948.97;;;25.53;49.87
64053;BME280;50299;49.524;8.536;2023-08-20T08:03:25;100963.84;;;25.16;51.02
64053;BME280;50299;49.524;8.536;2023-08-20T08:05:53;100957.16;;;25.78;50.91
64053;BME280;50299;49.524;8.536;2023-08-20T08:08:20;100949.06;;;26.14;48.67
64053;BME280;50299;49.524;8.536;2023-08-20T08:10:47;100954.03;;;26.03;49.36
64053;BME280;50299;49.524;8.536;2023-08-20T08:13:19;100952.88;;;26.31;47.45
64053;BME280;50299;49.524;8.536;2023-08-20T08:15:45;100957.88;;;26.50;46.75
64053;BME280;50299;49.524;8.536;2023-08-20T08:18:12;100959.38;;;26.82;48.70
64053;BME280;50299;49.524;8.536;2023-08-20T08:20:39;100953.25;;;26.87;47.23
64053;BME280;50299;49.524;8.536;2023-08-20T08:23:05;100962.22;;;27.32;46.03
64053;BME280;50299;49.524;8.536;2023-08-20T08:25:32;100960.16;;;27.33;44.30
64053;BME280;50299;49.524;8.536;2023-08-20T08:27:58;100952.22;;;27.24;45.96
64053;BME280;50299;49.524;8.536;2023-08-20T08:30:26;100951.16;;;27.38;45.34
64053;BME280;50299;49.524;8.536;2023-08-20T08:32:53;100958.63;;;27.28;44.73
64053;BME280;50299;49.524;8.536;2023-08-20T08:35:20;100959.19;;;27.20;44.27
64053;BME280;50299;49.524;8.536;2023-08-20T08:37:47;100965.34;;;27.38;46.99
64053;BME280;50299;49.524;8.536;2023-08-20T08:40:13;100961.03;;;27.53;45.43
64053;BME280;50299;49.524;8.536;2023-08-20T08:42:40;100958.88;;;26.64;45.93
64053;BME280;50299;49.524;8.536;2023-08-20T08:45:09;100969.34;;;27.41;44.32
64053;BME280;50299;49.524;8.536;2023-08-20T08:47:36;100964.31;;;27.28;44.10
64053;BME280;50299;49.524;8.536;2023-08-20T08:50:04;100968.69;;;27.33;44.58
64053;BME280;50299;49.524;8.536;2023-08-20T08:52:32;100965.25;;;27.65;44.07
64053;BME280;50299;49.524;8.536;2023-08-20T08:54:58;100964.53;;;27.61;42.69
64053;BME280;50299;49.524;8.536;2023-08-20T08:57:25;100960.31;;;27.69;43.64
64053;BME280;50299;49.524;8.536;2023-08-20T08:59:52;100970.50;;;27.00;44.26
64053;BME280;50299;49.524;8.536;2023-08-20T09:02:18;100967.38;;;26.91;44.44
64053;BME280;50299;49.524;8.536;2023-08-20T09:04:45;100969.13;;;26.81;45.90
64053;BME280;50299;49.524;8.536;2023-08-20T09:07:13;100968.78;;;26.52;45.69
64053;BME280;50299;49.524;8.536;2023-08-20T09:09:43;100975.53;;;27.12;45.41
64053;BME280;50299;49.524;8.536;2023-08-20T09:12:17;100978.56;;;27.48;44.86
64053;BME280;50299;49.524;8.536;2023-08-20T09:14:51;100975.09;;;27.61;45.53
64053;BME280;50299;49.524;8.536;2023-08-20T09:17:18;100968.25;;;27.78;43.46
64053;BME280;50299;49.524;8.536;2023-08-20T09:19:48;100971.75;;;27.86;42.82
64053;BME280;50299;49.524;8.536;2023-08-20T09:22:15;100976.41;;;27.76;43.17
64053;BME280;50299;49.524;8.536;2023-08-20T09:24:45;100968.91;;;27.86;44.34
64053;BME280;50299;49.524;8.536;2023-08-20T09:27:13;100967.63;;;28.10;42.69
64053;BME280;50299;49.524;8.536;2023-08-20T09:29:57;100962.34;;;28.09;42.13
64053;BME280;50299;49.524;8.536;2023-08-20T09:32:27;100968.91;;;27.86;41.47
64053;BME280;50299;49.524;8.536;2023-08-20T09:34:55;100975.38;;;27.86;43.02
64053;BME280;50299;49.524;8.536;2023-08-20T09:37:23;100970.25;;;27.97;42.38
64053;BME280;50299;49.524;8.536;2023-08-20T09:39:50;100968.91;;;28.42;41.08
64053;BME280;50299;49.524;8.536;2023-08-20T09:42:17;100966.22;;;28.71;43.15
64053;BME280;50299;49.524;8.536;2023-08-20T09:44:45;100973.66;;;29.01;38.97
64053;BME280;50299;49.524;8.536;2023-08-20T09:47:16;100963.88;;;29.02;40.80
64053;BME280;50299;49.524;8.536;2023-08-20T09:49:44;100967.66;;;29.12;40.02
64053;BME280;50299;49.524;8.536;2023-08-20T09:52:21;100974.88;;;29.16;39.24
64053;BME280;50299;49.524;8.536;2023-08-20T09:55:02;100968.56;;;29.09;40.80
64053;BME280;50299;49.524;8.536;2023-08-20T09:57:35;100967.22;;;28.28;40.88
64053;BME280;50299;49.524;8.536;2023-08-20T10:00:04;100965.50;;;28.67;39.98
64053;BME280;50299;49.524;8.536;2023-08-20T10:02:33;100967.75;;;29.24;37.91
64053;BME280;50299;49.524;8.536;2023-08-20T10:05:00;100964.72;;;29.32;38.38
64053;BME280;50299;49.524;8.536;2023-08-20T10:07:29;100962.34;;;28.97;39.38
64053;BME280;50299;49.524;8.536;2023-08-20T10:10:18;100952.09;;;29.16;38.07
64053;BME280;50299;49.524;8.536;2023-08-20T10:12:45;100947.41;;;28.93;41.50
64053;BME280;50299;49.524;8.536;2023-08-20T10:15:14;100947.28;;;29.30;39.87
64053;BME280;50299;49.524;8.536;2023-08-20T10:17:42;100948.22;;;29.56;39.10
64053;BME280;50299;49.524;8.536;2023-08-20T10:20:09;100957.91;;;29.87;41.55
64053;BME280;50299;49.524;8.536;2023-08-20T10:22:41;100954.59;;;29.89;35.88
64053;BME280;50299;49.524;8.536;2023-08-20T10:25:12;100951.03;;;28.94;38.92
64053;BME280;50299;49.524;8.536;2023-08-20T10:27:40;100948.06;;;29.46;36.27
64053;BME280;50299;49.524;8.536;2023-08-20T10:30:08;100955.75;;;29.91;36.60
64053;BME280;50299;49.524;8.536;2023-08-20T10:32:53;100952.34;;;29.38;35.81
64053;BME280;50299;49.524;8.536;2023-08-20T10:35:25;100944.19;;;29.08;37.90
64053;BME280;50299;49.524;8.536;2023-08-20T10:38:05;100949.09;;;29.52;37.55
64053;BME280;50299;49.524;8.536;2023-08-20T10:40:54;100945.88;;;29.67;35.23
64053;BME280;50299;49.524;8.536;2023-08-20T10:46:16;100950.50;;;28.83;34.42
64053;BME280;50299;49.524;8.536;2023-08-20T10:48:51;100944.78;;;28.50;35.57
64053;BME280;50299;49.524;8.536;2023-08-20T10:56:42;100946.53;;;29.42;34.10
64053;BME280;50299;49.524;8.536;2023-08-20T10:59:16;100946.94;;;29.86;34.56
64053;BME280;50299;49.524;8.536;2023-08-20T11:01:47;100932.19;;;30.04;33.69
64053;BME280;50299;49.524;8.536;2023-08-20T11:04:19;100937.44;;;30.05;35.20
64053;BME280;50299;49.524;8.536;2023-08-20T11:06:50;100952.47;;;29.18;32.84
64053;BME280;50299;49.524;8.536;2023-08-20T11:09:18;100937.38;;;29.50;33.73
64053;BME280;50299;49.524;8.536;2023-08-20T11:11:45;100923.66;;;29.74;37.26
64053;BME280;50299;49.524;8.536;2023-08-20T11:14:15;100940.31;;;29.76;34.08
64053;BME280;50299;49.524;8.536;2023-08-20T11:16:42;100929.69;;;30.18;34.30
64053;BME280;50299;49.524;8.536;2023-08-20T11:19:13;100934.59;;;30.69;35.49
64053;BME280;50299;49.524;8.536;2023-08-20T11:21:42;100934.31;;;30.41;30.88
64053;BME280;50299;49.524;8.536;2023-08-20T11:24:10;100940.28;;;29.63;32.60
64053;BME280;50299;49.524;8.536;2023-08-20T11:26:39;100939.72;;;29.68;33.96
64053;BME280;50299;49.524;8.536;2023-08-20T11:29:12;100934.50;;;29.80;36.20
64053;BME280;50299;49.524;8.536;2023-08-20T11:31:39;100925.81;;;30.25;32.34
64053;BME280;50299;49.524;8.536;2023-08-20T11:34:06;100934.81;;;29.69;32.17
64053;BME280;50299;49.524;8.536;2023-08-20T11:36:34;100927.75;;;30.28;33.88
64053;BME280;50299;49.524;8.536;2023-08-20T11:39:01;100932.03;;;29.52;30.58
64053;BME280;50299;49.524;8.536;2023-08-20T11:41:28;100932.19;;;29.00;34.39
64053;BME280;50299;49.524;8.536;2023-08-20T11:43:55;100937.38;;;29.50;32.61
64053;BME280;50299;49.524;8.536;2023-08-20T11:46:23;100936.75;;;29.72;30.86
64053;BME280;50299;49.524;8.536;2023-08-20T11:51:38;100925.66;;;29.61;30.46
64053;BME280;50299;49.524;8.536;2023-08-20T11:54:16;100928.47;;;29.90;31.51
64053;BME280;50299;49.524;8.536;2023-08-20T11:56:47;100924.47;;;30.42;30.65
64053;BME280;50299;49.524;8.536;2023-08-20T11:59:15;100925.13;;;29.95;31.04
64053;BME280;50299;49.524;8.536;2023-08-20T12:01:42;100920.84;;;29.87;29.14
64053;BME280;50299;49.524;8.536;2023-08-20T12:04:10;100918.50;;;30.11;30.10
64053;BME280;50299;49.524;8.536;2023-08-20T12:06:37;100913.06;;;30.17;29.52
64053;BME280;50299;49.524;8.536;2023-08-20T12:09:23;100912.38;;;30.13;31.17
64053;BME280;50299;49.524;8.536;2023-08-20T12:11:50;100896.97;;;30.61;32.59
64053;BME280;50299;49.524;8.536;2023-08-20T12:14:18;100902.38;;;31.07;31.44
64053;BME280;50299;49.524;8.536;2023-08-20T12:16:46;100897.34;;;31.11;30.24
64053;BME280;50299;49.524;8.536;2023-08-20T12:19:13;100892.66;;;31.04;30.40
64053;BME280;50299;49.524;8.536;2023-08-20T12:21:45;100894.69;;;31.16;31.76
64053;BME280;50299;49.524;8.536;2023-08-20T12:24:12;100903.38;;;31.13;28.57
64053;BME280;50299;49.524;8.536;2023-08-20T12:26:39;100889.44;;;30.67;30.87
64053;BME280;50299;49.524;8.536;2023-08-20T12:29:06;100894.34;;;30.67;29.47
64053;BME280;50299;49.524;8.536;2023-08-20T12:31:33;100890.06;;;30.97;30.89
64053;BME280;50299;49.524;8.536;2023-08-20T12:34:01;100899.56;;;31.51;33.61
64053;BME280;50299;49.524;8.536;2023-08-20T12:36:27;100885.88;;;31.89;30.24
64053;BME280;50299;49.524;8.536;2023-08-20T12:38:54;100888.84;;;31.64;30.68
64053;BME280;50299;49.524;8.536;2023-08-20T12:41:21;100892.03;;;31.88;29.92
64053;BME280;50299;49.524;8.536;2023-08-20T12:43:47;100891.72;;;32.17;29.50
64053;BME280;50299;49.524;8.536;2023-08-20T12:46:14;100891.19;;;31.34;29.22
64053;BME280;50299;49.524;8.536;2023-08-20T12:48:40;100891.88;;;31.04;30.87
64053;BME280;50299;49.524;8.536;2023-08-20T12:51:07;100887.19;;;30.97;31.61
64053;BME280;50299;49.524;8.536;2023-08-20T12:53:34;100883.91;;;30.98;31.94
64053;BME280;50299;49.524;8.536;2023-08-20T12:56:03;100879.25;;;30.79;32.52
64053;BME280;50299;49.524;8.536;2023-08-20T12:58:30;100881.56;;;31.06;32.96
64053;BME280;50299;49.524;8.536;2023-08-20T13:00:57;100886.28;;;31.00;34.52
64053;BME280;50299;49.524;8.536;2023-08-20T13:03:23;100879.16;;;30.70;32.66
64053;BME280;50299;49.524;8.536;2023-08-20T13:05:50;100877.06;;;30.83;32.88
64053;BME280;50299;49.524;8.536;2023-08-20T13:08:17;100869.75;;;30.95;34.62